MA6 weather

Monponsett Pond Seaplane Base
Halifax, Massachusetts, United States

Public forecast

Using degrees Fahrenheit for public forecast. Weather courtesy of forecast.io.

METAR (pilot weather report)

Closest report is Plymouth Municipal Airport, 7.9 nm (14.7 km) SE. Retrieved 2019/07/19 07:44 UTC (0 seconds ago):

KPYM 190744Z AUTO 03004KT 10SM OVC005 19/18 A2987 RMK AO2 T01940178

TAF (pilot weather forecast)

Forecast is more than 12 hours old.

Closest forecast is General Edward Lawrence Logan International Airport, 22.5 nm (41.6 km) NNW. Retrieved 2019/07/18 00:37 UTC (1 day ago):

TAF KBOS 182333Z 1900/2006 07007KT P6SM SCT015 BKN025 FM190400 07004KT P6SM OVC015 FM190900 36003KT P6SM OVC015 FM191400 21003KT P6SM SCT045 FM191600 14006KT P6SM SCT050 FM191900 22012KT P6SM SCT050